Time,TemperatureF,DewpointF,PressureIn,WindDirection,WindDirectionDegrees,WindSpeedMPH,WindSpeedGustMPH,Humidity,HourlyPrecipIn,Conditions,Clouds,dailyrainin,SoftwareType,DateUTC
2013-10-23 01:01:00,51.0,49.3,29.98,WSW,252,0.0,0.0,94,0.00,,,0.00,WeatherTracker,2013-10-23 08:01:00,
2013-10-23 01:06:00,51.1,49.4,29.98,WSW,252,1.0,0.0,94,0.00,,,0.00,WeatherTracker,2013-10-23 08:06:00,
2013-10-23 01:11:00,51.0,49.0,29.98,WSW,252,0.0,0.0,93,0.00,,,0.00,WeatherTracker,2013-10-23 08:11:00,
2013-10-23 01:16:00,51.0,49.3,29.98,WSW,252,0.0,0.0,94,0.00,,,0.00,WeatherTracker,2013-10-23 08:16:00,
2013-10-23 01:21:00,51.1,49.4,29.98,WSW,252,0.0,0.0,94,0.00,,,0.00,WeatherTracker,2013-10-23 08:21:00,
2013-10-23 01:26:00,51.1,49.1,29.98,WSW,252,0.0,0.0,93,0.00,,,0.00,WeatherTracker,2013-10-23 08:26:00,
2013-10-23 01:32:00,51.0,49.3,29.98,WSW,252,0.0,0.0,94,0.00,,,0.00,WeatherTracker,2013-10-23 08:32:00,
2013-10-23 01:58:00,51.0,49.3,29.98,WSW,252,0.0,0.0,94,0.00,,,0.00,WeatherTracker,2013-10-23 08:58:00,
2013-10-23 02:03:00,51.0,49.3,29.98,WSW,252,0.0,0.0,94,0.00,,,0.00,WeatherTracker,2013-10-23 09:03:00,
2013-10-23 02:08:00,51.0,49.3,29.98,WSW,252,1.0,0.0,94,0.00,,,0.00,WeatherTracker,2013-10-23 09:08:00,
2013-10-23 02:13:00,50.9,49.2,29.98,WSW,252,0.0,0.0,94,0.00,,,0.00,WeatherTracker,2013-10-23 09:13:00,
2013-10-23 02:19:00,50.9,49.2,29.98,WSW,252,0.0,0.0,94,0.00,,,0.00,WeatherTracker,2013-10-23 09:19:00,
2013-10-23 02:31:00,50.8,49.1,29.98,WSW,252,0.0,0.0,94,0.00,,,0.00,WeatherTracker,2013-10-23 09:31:00,
2013-10-23 02:44:00,50.8,49.1,29.98,WSW,252,0.0,0.0,94,0.00,,,0.00,WeatherTracker,2013-10-23 09:44:00,
2013-10-23 02:55:00,50.7,49.0,29.98,WSW,252,0.0,0.0,94,0.00,,,0.00,WeatherTracker,2013-10-23 09:55:00,
2013-10-23 03:00:00,50.8,49.1,29.98,WSW,252,0.0,0.0,94,0.00,,,0.00,WeatherTracker,2013-10-23 10:00:00,
2013-10-23 03:15:00,50.7,49.0,29.98,WSW,252,0.0,0.0,94,0.00,,,0.00,WeatherTracker,2013-10-23 10:15:00,
2013-10-23 03:23:00,50.6,48.9,29.98,WSW,252,4.0,0.0,94,0.00,,,0.00,WeatherTracker,2013-10-23 10:23:00,
2013-10-23 03:36:00,50.5,48.8,29.98,WSW,252,1.0,0.0,94,0.00,,,0.00,WeatherTracker,2013-10-23 10:36:00,
2013-10-23 03:41:00,50.4,48.7,29.98,WSW,252,0.0,0.0,94,0.00,,,0.00,WeatherTracker,2013-10-23 10:41:00,
2013-10-23 03:51:00,50.5,48.8,29.97,WSW,252,0.0,0.0,94,0.00,,,0.00,WeatherTracker,2013-10-23 10:51:00,
2013-10-23 04:25:00,50.3,48.6,29.97,WSW,252,1.0,0.0,94,0.00,,,0.00,WeatherTracker,2013-10-23 11:25:00,
2013-10-23 04:53:00,50.5,48.8,29.97,WSW,252,2.0,0.0,94,0.00,,,0.00,WeatherTracker,2013-10-23 11:53:00,
2013-10-23 05:11:00,50.5,48.8,29.98,WSW,252,0.0,0.0,94,0.00,,,0.00,WeatherTracker,2013-10-23 12:11:00,
2013-10-23 06:05:00,50.6,48.9,29.98,WSW,252,0.0,0.0,94,0.00,,,0.00,WeatherTracker,2013-10-23 13:05:00,
2013-10-23 06:10:00,50.7,49.0,29.98,WSW,252,0.0,0.0,94,0.00,,,0.00,WeatherTracker,2013-10-23 13:10:00,
2013-10-23 06:36:00,50.6,48.9,29.98,WSW,252,2.0,0.0,94,0.00,,,0.00,WeatherTracker,2013-10-23 13:36:00,
2013-10-23 07:37:00,50.4,48.7,29.99,WSW,252,0.0,0.0,94,0.00,,,0.00,WeatherTracker,2013-10-23 14:37:00,
2013-10-23 07:53:00,50.4,48.7,29.98,WSW,252,0.0,0.0,94,0.00,,,0.00,WeatherTracker,2013-10-23 14:53:00,
2013-10-23 08:08:00,50.4,48.7,29.99,WSW,252,0.0,0.0,94,0.00,,,0.00,WeatherTracker,2013-10-23 15:08:00,
2013-10-23 08:13:00,50.4,48.7,29.99,WSW,252,0.0,0.0,94,0.00,,,0.00,WeatherTracker,2013-10-23 15:13:00,
2013-10-23 08:18:00,50.4,48.7,29.99,WSW,252,1.0,0.0,94,0.00,,,0.00,WeatherTracker,2013-10-23 15:18:00,
2013-10-23 08:28:00,50.4,48.7,29.99,WSW,252,0.0,0.0,94,0.00,,,0.00,WeatherTracker,2013-10-23 15:28:00,
2013-10-23 08:42:00,50.4,48.7,29.99,WSW,252,0.0,0.0,94,0.00,,,0.00,WeatherTracker,2013-10-23 15:42:00,
2013-10-23 08:54:00,50.4,48.7,30.00,WSW,252,0.0,0.0,94,0.00,,,0.00,WeatherTracker,2013-10-23 15:54:00,
2013-10-23 08:59:00,50.5,48.8,30.00,WSW,252,0.0,0.0,94,0.00,,,0.00,WeatherTracker,2013-10-23 15:59:00,
2013-10-23 09:07:00,50.5,48.8,30.00,WSW,252,2.0,0.0,94,0.00,,,0.00,WeatherTracker,2013-10-23 16:07:00,
2013-10-23 09:13:00,50.5,48.8,30.00,WSW,252,0.0,0.0,94,0.00,,,0.00,WeatherTracker,2013-10-23 16:13:00,
2013-10-23 09:18:00,50.5,48.8,30.00,WSW,252,0.0,0.0,94,0.00,,,0.00,WeatherTracker,2013-10-23 16:18:00,
2013-10-23 09:25:00,50.5,49.1,30.00,WSW,252,0.0,0.0,95,0.00,,,0.00,WeatherTracker,2013-10-23 16:25:00,
2013-10-23 09:33:00,50.6,49.2,30.00,WSW,252,0.0,0.0,95,0.00,,,0.00,WeatherTracker,2013-10-23 16:33:00,
2013-10-23 09:45:00,51.2,49.8,30.00,WSW,252,0.0,0.0,95,0.00,,,0.00,WeatherTracker,2013-10-23 16:45:00,
2013-10-23 09:52:00,51.5,50.1,30.00,WSW,252,1.0,0.0,95,0.00,,,0.00,WeatherTracker,2013-10-23 16:52:00,
2013-10-23 09:57:00,51.5,49.8,30.00,WSW,252,0.0,0.0,94,0.00,,,0.00,WeatherTracker,2013-10-23 16:57:00,
2013-10-23 10:05:00,51.6,49.9,30.00,WSW,252,1.0,0.0,94,0.00,,,0.00,WeatherTracker,2013-10-23 17:05:00,
2013-10-23 10:13:00,51.7,50.3,30.00,WSW,252,0.0,0.0,95,0.00,,,0.00,WeatherTracker,2013-10-23 17:13:00,
2013-10-23 10:19:00,51.5,49.8,30.00,WSW,252,0.0,0.0,94,0.00,,,0.00,WeatherTracker,2013-10-23 17:19:00,
2013-10-23 10:24:00,51.4,49.7,30.00,WSW,252,0.0,0.0,94,0.00,,,0.00,WeatherTracker,2013-10-23 17:24:00,
2013-10-23 10:29:00,51.8,50.1,30.00,WSW,252,0.0,0.0,94,0.00,,,0.00,WeatherTracker,2013-10-23 17:29:00,
2013-10-23 10:34:00,51.9,49.9,30.00,WSW,252,0.0,0.0,93,0.00,,,0.00,WeatherTracker,2013-10-23 17:34:00,
2013-10-23 10:43:00,52.8,50.8,30.00,WSW,252,0.0,0.0,93,0.00,,,0.00,WeatherTracker,2013-10-23 17:43:00,
2013-10-23 10:48:00,52.8,50.5,30.00,WSW,252,0.0,0.0,92,0.00,,,0.00,WeatherTracker,2013-10-23 17:48:00,
2013-10-23 10:58:00,52.7,50.1,29.99,WSW,252,0.0,0.0,91,0.00,,,0.00,WeatherTracker,2013-10-23 17:58:00,
2013-10-23 11:06:00,52.9,50.3,29.99,WSW,252,1.0,0.0,91,0.00,,,0.00,WeatherTracker,2013-10-23 18:06:00,
2013-10-23 11:12:00,53.5,50.9,29.99,WSW,252,0.0,0.0,91,0.00,,,0.00,WeatherTracker,2013-10-23 18:12:00,
2013-10-23 11:19:00,54.0,50.5,29.98,WSW,252,0.0,0.0,88,0.00,,,0.00,WeatherTracker,2013-10-23 18:19:00,
2013-10-23 11:27:00,54.8,51.0,29.99,WSW,252,3.0,0.0,87,0.00,,,0.00,WeatherTracker,2013-10-23 18:27:00,
2013-10-23 11:36:00,54.5,51.0,29.98,WSW,252,3.0,0.0,88,0.00,,,0.00,WeatherTracker,2013-10-23 18:36:00,
2013-10-23 11:41:00,55.4,51.0,29.98,WSW,252,2.0,0.0,85,0.00,,,0.00,WeatherTracker,2013-10-23 18:41:00,
2013-10-23 11:47:00,55.7,51.3,29.98,WSW,252,1.0,0.0,85,0.00,,,0.00,WeatherTracker,2013-10-23 18:47:00,
2013-10-23 11:57:00,56.8,51.7,29.98,WSW,240,1.0,0.0,83,0.00,,,0.00,WeatherTracker,2013-10-23 18:57:00,
2013-10-23 12:06:00,55.8,51.0,29.98,WSW,246,2.0,0.0,84,0.00,,,0.00,WeatherTracker,2013-10-23 19:06:00,
2013-10-23 12:20:00,56.2,51.1,29.98,WSW,242,2.0,0.0,83,0.00,,,0.00,WeatherTracker,2013-10-23 19:20:00,
2013-10-23 12:25:00,55.8,51.0,29.98,West,259,2.0,0.0,84,0.00,,,0.00,WeatherTracker,2013-10-23 19:25:00,
2013-10-23 12:32:00,56.2,51.7,29.98,WSW,241,2.0,0.0,85,0.00,,,0.00,WeatherTracker,2013-10-23 19:32:00,
2013-10-23 12:37:00,56.1,51.3,29.98,West,278,3.0,0.0,84,0.00,,,0.00,WeatherTracker,2013-10-23 19:37:00,
2013-10-23 12:43:00,55.6,50.8,29.98,West,260,3.0,0.0,84,0.00,,,0.00,WeatherTracker,2013-10-23 19:43:00,
2013-10-23 12:51:00,55.7,50.9,29.97,WSW,249,2.0,0.0,84,0.00,,,0.00,WeatherTracker,2013-10-23 19:51:00,
2013-10-23 13:06:00,56.2,51.4,29.96,WSW,254,1.0,0.0,84,0.00,,,0.00,WeatherTracker,2013-10-23 20:06:00,
2013-10-23 13:12:00,56.1,51.0,29.96,WSW,248,3.0,0.0,83,0.00,,,0.00,WeatherTracker,2013-10-23 20:12:00,
2013-10-23 13:18:00,56.8,51.7,29.96,West,261,2.0,0.0,83,0.00,,,0.00,WeatherTracker,2013-10-23 20:18:00,
2013-10-23 13:23:00,56.8,51.4,29.96,West,273,2.0,0.0,82,0.00,,,0.00,WeatherTracker,2013-10-23 20:23:00,
2013-10-23 13:29:00,57.3,51.9,29.95,West,262,4.0,0.0,82,0.00,,,0.00,WeatherTracker,2013-10-23 20:29:00,
2013-10-23 13:34:00,57.3,51.9,29.95,WSW,257,2.0,0.0,82,0.00,,,0.00,WeatherTracker,2013-10-23 20:34:00,
2013-10-23 13:59:00,57.5,51.7,29.95,WNW,285,2.0,0.0,81,0.00,,,0.00,WeatherTracker,2013-10-23 20:59:00,
2013-10-23 14:09:00,57.1,51.7,29.95,WSW,250,4.0,0.0,82,0.00,,,0.00,WeatherTracker,2013-10-23 21:09:00,
2013-10-23 14:16:00,56.5,51.4,29.95,West,279,3.0,0.0,83,0.00,,,0.00,WeatherTracker,2013-10-23 21:16:00,
2013-10-23 14:24:00,57.6,52.5,29.94,SW,228,2.0,0.0,83,0.00,,,0.00,WeatherTracker,2013-10-23 21:24:00,
2013-10-23 14:31:00,57.6,52.1,29.94,WNW,288,2.0,0.0,82,0.00,,,0.00,WeatherTracker,2013-10-23 21:31:00,
2013-10-23 14:48:00,57.3,51.5,29.94,WNW,291,2.0,0.0,81,0.00,,,0.00,WeatherTracker,2013-10-23 21:48:00,
2013-10-23 14:57:00,57.3,51.5,29.94,WNW,286,1.0,0.0,81,0.00,,,0.00,WeatherTracker,2013-10-23 21:57:00,
2013-10-23 15:02:00,57.3,51.5,29.94,West,279,3.0,0.0,81,0.00,,,0.00,WeatherTracker,2013-10-23 22:02:00,
2013-10-23 15:13:00,57.3,51.9,29.94,WNW,286,6.0,0.0,82,0.00,,,0.00,WeatherTracker,2013-10-23 22:13:00,
2013-10-23 15:19:00,57.3,52.2,29.94,WNW,296,4.0,0.0,83,0.00,,,0.00,WeatherTracker,2013-10-23 22:19:00,
2013-10-23 15:44:00,56.3,51.5,29.94,West,265,1.0,0.0,84,0.00,,,0.00,WeatherTracker,2013-10-23 22:44:00,
2013-10-23 15:51:00,56.1,51.3,29.94,WSW,239,2.0,0.0,84,0.00,,,0.00,WeatherTracker,2013-10-23 22:51:00,
2013-10-23 16:03:00,55.6,51.2,29.94,WNW,284,4.0,0.0,85,0.00,,,0.00,WeatherTracker,2013-10-23 23:03:00,
2013-10-23 16:08:00,55.2,51.1,29.94,WSW,240,4.0,0.0,86,0.00,,,0.00,WeatherTracker,2013-10-23 23:08:00,
2013-10-23 16:29:00,54.9,51.1,29.94,WNW,291,2.0,0.0,87,0.00,,,0.00,WeatherTracker,2013-10-23 23:29:00,
2013-10-23 16:35:00,54.5,50.7,29.94,West,265,3.0,0.0,87,0.00,,,0.00,WeatherTracker,2013-10-23 23:35:00,
2013-10-23 16:41:00,54.4,50.6,29.94,West,266,3.0,0.0,87,0.00,,,0.00,WeatherTracker,2013-10-23 23:41:00,
2013-10-23 16:48:00,54.0,50.2,29.94,SW,218,7.0,0.0,87,0.00,,,0.00,WeatherTracker,2013-10-23 23:48:00,
2013-10-23 16:54:00,53.9,50.4,29.94,WSW,245,8.0,0.0,88,0.00,,,0.00,WeatherTracker,2013-10-23 23:54:00,
2013-10-23 16:59:00,53.9,50.4,29.94,West,269,2.0,0.0,88,0.00,,,0.00,WeatherTracker,2013-10-23 23:59:00,
2013-10-23 17:05:00,53.8,50.3,29.94,WNW,295,1.0,0.0,88,0.00,,,0.00,WeatherTracker,2013-10-24 00:05:00,
2013-10-23 17:15:00,53.8,50.3,29.95,SW,225,2.0,0.0,88,0.00,,,0.00,WeatherTracker,2013-10-24 00:15:00,
2013-10-23 17:20:00,53.8,50.3,29.95,WNW,283,0.0,0.0,88,0.00,,,0.00,WeatherTracker,2013-10-24 00:20:00,
2013-10-23 17:30:00,53.5,50.0,29.94,WSW,257,3.0,0.0,88,0.00,,,0.00,WeatherTracker,2013-10-24 00:30:00,
2013-10-23 17:42:00,53.3,49.8,29.94,WSW,239,5.0,0.0,88,0.00,,,0.00,WeatherTracker,2013-10-24 00:42:00,
2013-10-23 17:49:00,53.2,49.7,29.95,West,277,4.0,0.0,88,0.00,,,0.00,WeatherTracker,2013-10-24 00:49:00,
2013-10-23 17:54:00,52.9,49.4,29.95,WNW,286,3.0,0.0,88,0.00,,,0.00,WeatherTracker,2013-10-24 00:54:00,
2013-10-23 18:00:00,52.7,49.2,29.95,WNW,297,5.0,0.0,88,0.00,,,0.00,WeatherTracker,2013-10-24 01:00:00,
2013-10-23 18:11:00,52.3,49.2,29.95,West,273,2.0,0.0,89,0.00,,,0.00,WeatherTracker,2013-10-24 01:11:00,
2013-10-23 18:18:00,52.2,49.1,29.95,West,281,1.0,0.0,89,0.00,,,0.00,WeatherTracker,2013-10-24 01:18:00,
2013-10-23 18:23:00,52.1,49.0,29.95,SW,234,3.0,0.0,89,0.00,,,0.00,WeatherTracker,2013-10-24 01:23:00,
2013-10-23 18:28:00,52.1,49.3,29.95,WSW,248,4.0,0.0,90,0.00,,,0.00,WeatherTracker,2013-10-24 01:28:00,
2013-10-23 18:33:00,52.1,49.3,29.95,WSW,240,0.0,0.0,90,0.00,,,0.00,WeatherTracker,2013-10-24 01:33:00,
2013-10-23 18:40:00,52.1,49.3,29.95,WSW,257,3.0,0.0,90,0.00,,,0.00,WeatherTracker,2013-10-24 01:40:00,
2013-10-23 18:45:00,52.1,49.3,29.95,SW,232,2.0,0.0,90,0.00,,,0.00,WeatherTracker,2013-10-24 01:45:00,
2013-10-23 18:51:00,52.1,49.3,29.95,WSW,242,3.0,0.0,90,0.00,,,0.00,WeatherTracker,2013-10-24 01:51:00,
2013-10-23 18:58:00,52.0,49.2,29.96,WSW,252,2.0,0.0,90,0.00,,,0.00,WeatherTracker,2013-10-24 01:58:00,
2013-10-23 19:05:00,51.9,49.4,29.96,WSW,252,0.0,0.0,91,0.00,,,0.00,WeatherTracker,2013-10-24 02:05:00,
2013-10-23 19:11:00,51.9,49.4,29.96,WSW,252,1.0,0.0,91,0.00,,,0.00,WeatherTracker,2013-10-24 02:11:00,
2013-10-23 19:17:00,51.9,49.4,29.96,WSW,247,0.0,0.0,91,0.00,,,0.00,WeatherTracker,2013-10-24 02:17:00,
2013-10-23 19:24:00,52.0,49.5,29.96,WSW,242,0.0,0.0,91,0.00,,,0.00,WeatherTracker,2013-10-24 02:24:00,
2013-10-23 19:30:00,52.0,49.5,29.97,WSW,254,2.0,0.0,91,0.00,,,0.00,WeatherTracker,2013-10-24 02:30:00,
2013-10-23 19:35:00,52.0,49.5,29.97,WSW,244,2.0,0.0,91,0.00,,,0.00,WeatherTracker,2013-10-24 02:35:00,
2013-10-23 19:44:00,51.9,49.4,29.97,West,280,3.0,0.0,91,0.00,,,0.00,WeatherTracker,2013-10-24 02:44:00,
2013-10-23 19:52:00,51.9,49.4,29.97,WSW,243,1.0,0.0,91,0.00,,,0.00,WeatherTracker,2013-10-24 02:52:00,
2013-10-23 19:57:00,51.9,49.4,29.98,WSW,245,4.0,0.0,91,0.00,,,0.00,WeatherTracker,2013-10-24 02:57:00,
2013-10-23 20:02:00,51.8,49.3,29.98,WSW,246,2.0,0.0,91,0.00,,,0.00,WeatherTracker,2013-10-24 03:02:00,
2013-10-23 20:15:00,51.9,49.4,29.98,SSW,200,0.0,0.0,91,0.00,,,0.00,WeatherTracker,2013-10-24 03:15:00,
2013-10-23 20:20:00,51.9,49.4,29.98,SSE,155,0.0,0.0,91,0.00,,,0.00,WeatherTracker,2013-10-24 03:20:00,
2013-10-23 20:30:00,51.9,49.4,29.98,West,279,0.0,0.0,91,0.00,,,0.00,WeatherTracker,2013-10-24 03:30:00,
2013-10-23 20:36:00,51.9,49.4,29.98,West,279,0.0,0.0,91,0.00,,,0.00,WeatherTracker,2013-10-24 03:36:00,
2013-10-23 20:43:00,51.9,49.4,29.98,West,279,0.0,0.0,91,0.00,,,0.00,WeatherTracker,2013-10-24 03:43:00,
2013-10-23 20:49:00,52.0,49.5,29.98,West,279,0.0,0.0,91,0.00,,,0.00,WeatherTracker,2013-10-24 03:49:00,
2013-10-23 20:55:00,52.0,49.5,29.98,West,279,2.0,0.0,91,0.00,,,0.00,WeatherTracker,2013-10-24 03:55:00,
2013-10-23 21:04:00,52.0,49.5,29.98,West,272,0.0,0.0,91,0.00,,,0.00,WeatherTracker,2013-10-24 04:04:00,
2013-10-23 21:05:00,52.0,49.5,29.98,West,272,3.0,0.0,91,0.00,,,0.00,WeatherTracker,2013-10-24 04:05:00,
2013-10-23 21:12:00,52.0,49.5,29.98,West,272,3.0,0.0,91,0.00,,,0.00,WeatherTracker,2013-10-24 04:12:00,
2013-10-23 21:14:00,51.9,49.4,29.98,West,272,2.0,0.0,91,0.00,,,0.00,WeatherTracker,2013-10-24 04:14:00,
2013-10-23 21:20:00,51.9,49.4,29.98,WSW,255,2.0,0.0,91,0.00,,,0.00,WeatherTracker,2013-10-24 04:20:00,
2013-10-23 21:28:00,51.8,49.3,29.98,WSW,247,0.0,0.0,91,0.00,,,0.00,WeatherTracker,2013-10-24 04:28:00,
2013-10-23 21:36:00,51.8,49.3,29.99,WSW,247,0.0,0.0,91,0.00,,,0.00,WeatherTracker,2013-10-24 04:36:00,
2013-10-23 21:41:00,51.9,49.4,29.99,WSW,252,1.0,0.0,91,0.00,,,0.00,WeatherTracker,2013-10-24 04:41:00,
2013-10-23 21:46:00,51.8,49.3,29.99,WSW,252,1.0,0.0,91,0.00,,,0.00,WeatherTracker,2013-10-24 04:46:00,
2013-10-23 21:52:00,51.8,49.3,29.99,West,267,0.0,0.0,91,0.00,,,0.00,WeatherTracker,2013-10-24 04:52:00,
2013-10-23 22:00:00,51.8,49.3,29.99,West,267,0.0,0.0,91,0.00,,,0.00,WeatherTracker,2013-10-24 05:00:00,
2013-10-23 22:06:00,51.9,49.4,30.00,WSW,257,1.0,0.0,91,0.00,,,0.00,WeatherTracker,2013-10-24 05:06:00,
2013-10-23 22:15:00,52.2,49.7,30.00,West,259,2.0,0.0,91,0.00,,,0.00,WeatherTracker,2013-10-24 05:15:00,
2013-10-23 22:23:00,52.3,49.8,30.00,SSW,207,0.0,0.0,91,0.00,,,0.00,WeatherTracker,2013-10-24 05:23:00,
2013-10-23 22:31:00,52.3,49.8,30.00,SW,230,1.0,0.0,91,0.00,,,0.00,WeatherTracker,2013-10-24 05:31:00,
2013-10-23 22:39:00,52.3,49.8,30.00,WSW,249,2.0,0.0,91,0.00,,,0.00,WeatherTracker,2013-10-24 05:39:00,
2013-10-23 22:46:00,52.2,49.7,30.00,SSW,208,0.0,0.0,91,0.00,,,0.00,WeatherTracker,2013-10-24 05:46:00,
2013-10-23 22:52:00,52.2,49.4,30.00,WSW,256,6.0,0.0,90,0.00,,,0.00,WeatherTracker,2013-10-24 05:52:00,
2013-10-23 22:57:00,52.1,49.3,30.01,WSW,248,4.0,0.0,90,0.00,,,0.00,WeatherTracker,2013-10-24 05:57:00,
2013-10-23 23:05:00,51.9,49.1,30.01,WSW,248,0.0,0.0,90,0.00,,,0.00,WeatherTracker,2013-10-24 06:05:00,
2013-10-23 23:11:00,52.0,49.5,30.01,West,265,0.0,0.0,91,0.00,,,0.00,WeatherTracker,2013-10-24 06:11:00,
2013-10-23 23:16:00,52.0,49.5,30.01,WSW,251,2.0,0.0,91,0.00,,,0.00,WeatherTracker,2013-10-24 06:16:00,
2013-10-23 23:23:00,51.9,49.4,30.01,WSW,249,0.0,0.0,91,0.00,,,0.00,WeatherTracker,2013-10-24 06:23:00,
2013-10-23 23:29:00,51.9,49.4,30.01,WSW,249,3.0,0.0,91,0.00,,,0.00,WeatherTracker,2013-10-24 06:29:00,
2013-10-23 23:34:00,52.0,49.5,30.01,WSW,249,0.0,0.0,91,0.00,,,0.00,WeatherTracker,2013-10-24 06:34:00,
2013-10-23 23:40:00,52.1,49.3,30.01,SW,226,0.0,0.0,90,0.00,,,0.00,WeatherTracker,2013-10-24 06:40:00,
2013-10-23 23:45:00,52.2,49.7,30.01,SW,226,0.0,0.0,91,0.00,,,0.00,WeatherTracker,2013-10-24 06:45:00,
2013-10-23 23:51:00,52.2,49.4,30.01,WSW,245,1.0,0.0,90,0.00,,,0.00,WeatherTracker,2013-10-24 06:51:00,